Time;durP1;ratioP1;P1;durP2;ratioP2;P2;SDS_P1;SDS_P2;PMS_P1;PMS_P2;Temp;Humidity;BMP_temperature;BMP_pressure;BME280_temperature;BME280_humidity;BME280_pressure;Samples;Min_cycle;Max_cycle;Signal;HPM_P1;HPM_P2
2021/12/12 00:02:26;;;;;;;14.87;7.90;;;;;;;24.10;33.88;102037.00;1873915;76;22569;-41
2021/12/12 00:05:15;;;;;;;15.13;8.10;;;;;;;24.10;33.86;102043.79;1892652;76;22116;-40
2021/12/12 00:07:47;;;;;;;14.38;8.55;;;;;;;24.09;33.89;102038.02;1873917;76;22141;-40
2021/12/12 00:10:23;;;;;;;15.30;8.03;;;;;;;24.08;33.89;102039.89;1892708;76;22120;-40
2021/12/12 00:13:18;;;;;;;15.53;8.70;;;;;;;24.07;33.88;102045.00;1873892;76;22097;-41
2021/12/12 00:15:50;;;;;;;14.63;7.97;;;;;;;24.07;33.88;102036.03;1892719;76;22100;-41
2021/12/12 00:18:41;;;;;;;14.65;8.43;;;;;;;24.05;33.89;102044.38;1873891;76;22117;-41
2021/12/12 00:21:14;;;;;;;15.68;8.48;;;;;;;24.05;33.86;102045.73;1892717;76;22153;-40
2021/12/12 00:23:46;;;;;;;15.75;8.45;;;;;;;24.06;33.90;102045.21;1873928;76;22093;-41
2021/12/12 00:26:37;;;;;;;13.65;7.83;;;;;;;24.05;33.90;102036.75;1873874;76;22606;-41
2021/12/12 00:29:10;;;;;;;14.70;8.13;;;;;;;24.05;33.86;102032.68;1873861;76;22145;-41
2021/12/12 00:32:05;;;;;;;13.10;7.55;;;;;;;24.05;33.85;102039.47;1873891;76;22133;-41
2021/12/12 00:34:42;;;;;;;15.13;8.50;;;;;;;24.04;33.84;102044.55;1873932;76;22096;-40
2021/12/12 00:37:15;;;;;;;14.98;8.35;;;;;;;24.03;33.85;102047.78;1874032;76;22121;-40
2021/12/12 00:39:53;;;;;;;13.58;7.70;;;;;;;24.02;33.88;102040.69;1873908;76;22570;-41
2021/12/12 00:42:44;;;;;;;15.55;8.43;;;;;;;24.00;33.85;102038.70;1873906;76;22610;-40
2021/12/12 00:45:16;;;;;;;16.85;8.13;;;;;;;23.98;33.86;102044.30;1873928;76;22093;-40
2021/12/12 00:47:48;;;;;;;14.98;8.08;;;;;;;23.98;33.89;102045.66;1873918;76;22541;-40
2021/12/12 00:50:41;;;;;;;15.63;7.70;;;;;;;23.97;33.87;102043.98;1873882;76;22546;-40
2021/12/12 00:53:14;;;;;;;12.82;7.03;;;;;;;23.96;33.87;102043.66;1873931;76;22134;-41
2021/12/12 00:56:05;;;;;;;17.02;7.85;;;;;;;23.96;33.94;102042.83;1873906;76;22120;-40
2021/12/12 00:58:37;;;;;;;13.95;7.70;;;;;;;23.94;33.96;102048.95;1874030;76;22528;-40
2021/12/12 01:01:14;;;;;;;15.28;7.53;;;;;;;23.94;33.96;102044.36;1873919;76;22150;-40
2021/12/12 01:04:19;;;;;;;13.85;7.87;;;;;;;23.94;33.90;102048.95;1857953;76;28340;-40
2021/12/12 01:06:52;;;;;;;14.98;8.35;;;;;;;23.99;33.84;102046.49;1876640;76;27866;-41
2021/12/12 01:09:49;;;;;;;15.50;8.73;;;;;;;24.10;33.69;102043.79;1873886;76;22158;-41
2021/12/12 01:12:25;;;;;;;14.03;7.03;;;;;;;24.10;33.61;102036.48;1873925;76;22149;-41
2021/12/12 01:15:02;;;;;;;13.93;7.55;;;;;;;24.06;33.68;102033.83;1892708;76;22120;-41
2021/12/12 01:17:42;;;;;;;12.33;7.37;;;;;;;24.05;33.69;102036.75;1873082;76;22561;-40
2021/12/12 01:20:51;;;;;;;13.95;7.65;;;;;;;24.02;33.73;102037.13;1892701;76;22132;-40
2021/12/12 01:23:35;;;;;;;12.55;7.20;;;;;;;23.98;33.74;102036.67;1892692;76;22096;-41
2021/12/12 01:26:30;;;;;;;13.93;7.25;;;;;;;23.94;33.77;102029.95;1892704;76;22566;-40
2021/12/12 01:29:03;;;;;;;14.25;7.53;;;;;;;23.91;33.85;102031.72;1892756;76;20192;-40
2021/12/12 01:31:39;;;;;;;12.47;6.75;;;;;;;23.89;33.93;102027.82;1873928;76;22561;-41
2021/12/12 01:34:30;;;;;;;12.47;6.92;;;;;;;23.86;33.95;102027.39;1873912;76;22097;-40
2021/12/12 01:37:36;;;;;;;15.05;7.35;;;;;;;23.84;33.97;102026.21;1892728;76;22169;-41
2021/12/12 01:40:23;;;;;;;11.97;6.83;;;;;;;23.83;34.02;102023.18;1873919;76;22120;-41
2021/12/12 01:43:28;;;;;;;11.83;6.55;;;;;;;23.80;34.05;102020.84;1873931;76;22093;-41
2021/12/12 01:46:28;;;;;;;12.75;6.75;;;;;;;23.78;34.08;102024.28;1873917;76;22096;-40
2021/12/12 01:49:21;;;;;;;12.13;6.33;;;;;;;23.76;34.12;102031.80;1873932;76;22105;-40
2021/12/12 01:52:16;;;;;;;12.78;6.70;;;;;;;23.73;34.16;102026.74;1873926;76;22550;-40
2021/12/12 01:55:13;;;;;;;13.22;7.00;;;;;;;23.70;34.16;102027.95;1873926;76;22109;-40
2021/12/12 01:57:45;;;;;;;10.95;6.42;;;;;;;23.68;34.19;102034.63;1873920;76;22141;-40
2021/12/12 02:00:43;;;;;;;12.37;6.55;;;;;;;23.66;34.23;102034.80;1892660;76;22144;-41
2021/12/12 02:03:17;;;;;;;14.70;7.17;;;;;;;23.65;34.24;102035.00;1873921;76;22120;-40
2021/12/12 02:06:11;;;;;;;11.22;6.28;;;;;;;23.63;34.23;102041.95;1874004;76;22132;-41
2021/12/12 02:08:42;;;;;;;10.58;6.05;;;;;;;23.60;34.24;102040.97;1892725;76;22119;-40
2021/12/12 02:11:18;;;;;;;11.48;6.22;;;;;;;23.60;34.28;102044.20;1873901;76;22566;-41
2021/12/12 02:13:52;;;;;;;11.28;5.92;;;;;;;23.58;34.28;102047.13;1873925;76;22121;-40
2021/12/12 02:16:26;;;;;;;11.20;6.47;;;;;;;23.57;34.30;102056.78;1892709;76;22140;-40
2021/12/12 02:19:17;;;;;;;13.22;6.70;;;;;;;23.55;34.27;102058.34;1873905;76;22581;-40
2021/12/12 02:22:07;;;;;;;12.33;6.58;;;;;;;23.53;34.34;102058.23;1873901;76;22163;-40
2021/12/12 02:37:00;;;;;;;10.43;5.85;;;;;;;23.39;34.40;102054.00;1873913;76;22120;-40
2021/12/12 02:39:50;;;;;;;10.85;6.00;;;;;;;23.34;34.47;102042.89;1873886;76;22136;-41
2021/12/12 02:42:23;;;;;;;11.55;5.97;;;;;;;23.32;34.52;102048.16;1892718;76;22116;-41
2021/12/12 02:45:16;;;;;;;10.98;6.10;;;;;;;23.29;34.55;102043.98;1873902;76;22129;-40
2021/12/12 02:47:55;;;;;;;12.33;6.42;;;;;;;23.26;34.56;102042.99;1873924;76;22120;-40
2021/12/12 02:50:27;;;;;;;12.55;6.35;;;;;;;23.24;34.62;102046.91;1876634;76;27905;-40
2021/12/12 02:53:08;;;;;;;12.15;6.37;;;;;;;23.29;34.61;102049.41;1873924;76;20386;-41
2021/12/12 02:56:10;;;;;;;10.53;6.12;;;;;;;23.30;34.58;102044.30;1892802;76;22131;-40
2021/12/12 02:58:42;;;;;;;10.03;5.83;;;;;;;23.28;34.60;102049.05;1873930;76;22124;-40
2021/12/12 03:01:19;;;;;;;10.93;5.65;;;;;;;23.26;34.60;102053.84;1892704;76;22169;-40
2021/12/12 03:03:52;;;;;;;12.00;5.85;;;;;;;23.23;34.62;102048.78;1892727;76;22124;-40
2021/12/12 03:06:43;;;;;;;11.40;6.22;;;;;;;23.19;34.71;102051.03;1873896;76;22121;-41
2021/12/12 03:09:28;;;;;;;10.72;5.90;;;;;;;23.18;34.71;102041.73;1874043;76;22562;-40
2021/12/12 03:12:05;;;;;;;11.45;6.10;;;;;;;23.16;34.75;102045.16;1892727;76;22128;-40
2021/12/12 03:14:37;;;;;;;13.55;6.60;;;;;;;23.13;34.77;102050.95;1892713;76;22132;-41
2021/12/12 03:17:27;;;;;;;10.45;6.00;;;;;;;23.11;34.80;102050.31;1873915;76;22124;-40
2021/12/12 03:20:04;;;;;;;12.90;6.50;;;;;;;23.11;34.89;102050.31;1874023;76;22137;-41
2021/12/12 03:22:36;;;;;;;14.15;7.05;;;;;;;23.11;34.90;102040.31;1873932;76;22125;-40
2021/12/12 03:25:28;;;;;;;13.08;7.00;;;;;;;23.14;34.88;102047.21;1874012;76;22158;-40
2021/12/12 03:28:00;;;;;;;13.68;6.90;;;;;;;23.16;34.87;102051.95;1873938;76;22128;-40
2021/12/12 03:30:32;;;;;;;13.65;7.45;;;;;;;23.19;34.83;102048.83;1892693;76;22144;-41
2021/12/12 03:33:05;;;;;;;15.30;8.08;;;;;;;23.21;34.83;102042.20;1892718;76;22153;-40
2021/12/12 03:35:38;;;;;;;15.90;7.60;;;;;;;23.25;34.77;102044.03;1873920;76;22152;-40
2021/12/12 03:38:29;;;;;;;15.72;8.23;;;;;;;23.28;34.71;102034.66;1892709;76;22127;-41
2021/12/12 03:41:06;;;;;;;17.73;8.03;;;;;;;23.31;34.68;102034.29;1873925;76;22129;-40
2021/12/12 03:43:38;;;;;;;13.70;7.62;;;;;;;23.34;34.62;102038.83;1873918;76;22570;-41
2021/12/12 03:46:31;;;;;;;15.45;8.10;;;;;;;23.38;34.57;102045.55;1873888;76;22125;-40
2021/12/12 03:49:05;;;;;;;15.93;8.73;;;;;;;23.42;34.52;102047.34;1892727;76;22119;-41
2021/12/12 03:51:55;;;;;;;18.67;8.88;;;;;;;23.44;34.49;102058.86;1892672;76;22169;-40
2021/12/12 03:54:27;;;;;;;19.57;9.08;;;;;;;23.47;34.44;102061.16;1892681;76;22589;-41
2021/12/12 03:56:59;;;;;;;16.62;8.70;;;;;;;23.50;34.43;102056.72;1873917;76;22150;-41
2021/12/12 03:59:50;;;;;;;15.93;8.18;;;;;;;23.54;34.35;102059.91;1873895;76;22124;-40
2021/12/12 04:02:22;;;;;;;17.32;9.50;;;;;;;23.57;34.36;102053.59;1873919;76;22121;-41
2021/12/12 04:04:54;;;;;;;15.98;8.75;;;;;;;23.62;34.28;102058.41;1892704;76;22152;-40
2021/12/12 04:07:27;;;;;;;17.35;9.05;;;;;;;23.63;34.27;102059.59;1892722;76;22116;-40
2021/12/12 04:10:20;;;;;;;18.82;9.18;;;;;;;23.67;34.20;102053.30;1892771;76;22163;-40
2021/12/12 04:12:52;;;;;;;18.32;9.58;;;;;;;23.70;34.15;102053.73;1892717;76;22133;-41
2021/12/12 04:15:44;;;;;;;17.42;9.50;;;;;;;23.74;34.12;102039.79;1873870;76;22133;-40
2021/12/12 04:18:23;;;;;;;18.15;10.28;;;;;;;23.77;34.05;102044.32;1892659;76;22144;-40
2021/12/12 04:20:55;;;;;;;17.27;9.93;;;;;;;23.79;34.00;102042.76;1892837;76;22145;-40
2021/12/12 04:23:27;;;;;;;19.37;10.38;;;;;;;23.82;33.96;102053.23;1892701;76;22128;-40
2021/12/12 04:26:25;;;;;;;19.17;10.98;;;;;;;23.86;33.92;102059.45;1892678;76;22577;-41
2021/12/12 04:29:08;;;;;;;17.82;9.98;;;;;;;23.88;33.87;102054.65;1874034;76;22121;-41
2021/12/12 04:32:06;;;;;;;16.85;9.73;;;;;;;23.92;33.82;102060.53;1892790;76;22120;-40
2021/12/12 04:34:43;;;;;;;18.40;10.70;;;;;;;23.94;33.81;102067.95;1892718;76;22569;-40
2021/12/12 04:37:15;;;;;;;19.65;11.45;;;;;;;23.97;33.77;102061.63;1858001;76;27901;-41
2021/12/12 04:39:50;;;;;;;19.15;11.05;;;;;;;24.06;33.66;102059.63;1892705;76;22128;-40
2021/12/12 04:42:29;;;;;;;17.70;10.30;;;;;;;24.12;33.51;102050.69;1892716;76;22139;-40
2021/12/12 04:46:08;;;;;;;17.17;10.78;;;;;;;24.15;33.43;102050.83;1892670;76;22123;-40
2021/12/12 04:51:54;;;;;;;19.48;10.23;;;;;;;24.17;33.41;102065.03;1892716;76;22145;-40
2021/12/12 04:54:33;;;;;;;18.37;10.63;;;;;;;24.17;33.42;102064.52;1873931;76;22117;-40
2021/12/12 04:57:32;;;;;;;17.57;9.88;;;;;;;24.20;33.38;102075.00;1873996;76;22156;-40
2021/12/12 05:00:09;;;;;;;18.37;10.30;;;;;;;24.20;33.35;102078.23;1873910;76;22133;-41
2021/12/12 05:03:08;;;;;;;16.82;10.05;;;;;;;24.21;33.37;102081.26;1873925;76;22557;-41
2021/12/12 05:05:56;;;;;;;18.48;10.88;;;;;;;24.22;33.32;102080.22;1857994;76;27887;-40
2021/12/12 05:09:01;;;;;;;19.50;10.48;;;;;;;24.30;33.24;102090.11;1892700;76;22135;-40
2021/12/12 05:12:14;;;;;;;17.80;9.85;;;;;;;24.33;33.17;102097.88;1872095;75;22158;-40
2021/12/12 05:14:56;;;;;;;18.35;9.88;;;;;;;24.32;33.17;102094.30;1892719;76;22141;-41
2021/12/12 05:17:43;;;;;;;18.52;9.90;;;;;;;24.33;33.18;102097.88;1892738;76;22116;-40
2021/12/12 05:20:47;;;;;;;16.87;9.85;;;;;;;24.33;33.18;102100.59;1873915;76;22170;-40
2021/12/12 05:23:33;;;;;;;18.07;9.70;;;;;;;24.31;33.18;102095.34;1873917;76;22125;-40
2021/12/12 05:26:14;;;;;;;16.67;9.78;;;;;;;24.32;33.16;102098.37;1873922;76;22136;-41
2021/12/12 05:28:54;;;;;;;16.77;9.18;;;;;;;24.32;33.17;102106.52;1873925;76;22146;-41
2021/12/12 05:31:47;;;;;;;21.90;10.98;;;;;;;24.32;33.16;102111.11;1892676;76;22157;-40
2021/12/12 05:34:20;;;;;;;18.20;9.40;;;;;;;24.31;33.19;102108.92;1873922;76;22125;-40
2021/12/12 05:37:11;;;;;;;17.73;9.90;;;;;;;24.32;33.20;102113.83;1892672;76;22590;-40
2021/12/12 05:39:43;;;;;;;16.77;9.43;;;;;;;24.31;33.18;102112.99;1873919;76;22117;-40
2021/12/12 05:42:34;;;;;;;17.70;10.03;;;;;;;24.31;33.17;102114.34;1873877;76;22120;-40
2021/12/12 05:45:08;;;;;;;15.80;9.03;;;;;;;24.31;33.17;102114.34;1892720;76;22128;-41
2021/12/12 05:48:00;;;;;;;15.30;8.90;;;;;;;24.32;33.18;102122.81;1873843;76;22142;-40
2021/12/12 05:50:32;;;;;;;18.70;9.33;;;;;;;24.32;33.17;102123.34;1873911;76;22142;-41
2021/12/12 05:53:23;;;;;;;17.50;8.78;;;;;;;24.34;33.15;102127.55;1892680;76;22123;-40
2021/12/12 05:55:55;;;;;;;16.80;9.10;;;;;;;24.35;33.12;102127.03;1873926;76;22120;-40
2021/12/12 05:58:45;;;;;;;15.95;8.80;;;;;;;24.35;33.09;102122.44;1873886;76;22142;-40
2021/12/12 06:01:17;;;;;;;14.25;8.20;;;;;;;24.35;33.07;102121.08;1873919;76;22137;-41
2021/12/12 06:03:49;;;;;;;16.00;9.03;;;;;;;24.37;33.04;102116.83;1892720;76;22120;-41
2021/12/12 06:06:28;;;;;;;15.00;8.48;;;;;;;24.37;33.03;102133.12;1873923;76;22618;-40
2021/12/12 06:09:02;;;;;;;15.63;8.23;;;;;;;24.37;33.04;102132.64;1873920;76;22149;-40
2021/12/12 06:11:53;;;;;;;16.45;8.98;;;;;;;24.40;33.02;102150.41;1873839;76;22626;-40
2021/12/12 06:14:25;;;;;;;14.55;8.63;;;;;;;24.40;33.02;102140.89;1892701;76;22136;-40
2021/12/12 06:16:59;;;;;;;15.35;8.65;;;;;;;24.40;33.01;102135.46;1873911;76;22129;-41
2021/12/12 06:19:31;;;;;;;16.77;9.15;;;;;;;24.41;32.94;102130.34;1873910;76;22124;-40
2021/12/12 06:22:22;;;;;;;16.75;9.08;;;;;;;24.41;32.91;102124.91;1874009;76;22124;-41
2021/12/12 06:24:54;;;;;;;16.80;9.23;;;;;;;24.42;32.88;102126.62;1873929;76;22121;-40
2021/12/12 06:27:29;;;;;;;14.83;8.00;;;;;;;24.41;32.90;102121.67;1873915;76;22129;-40
2021/12/12 06:30:01;;;;;;;16.02;9.33;;;;;;;24.40;32.87;102124.08;1892721;76;22120;-40
2021/12/12 06:32:51;;;;;;;15.25;8.53;;;;;;;24.41;32.85;102114.05;1873893;76;22178;-41
2021/12/12 06:35:24;;;;;;;16.77;9.48;;;;;;;24.41;32.86;102117.59;1873910;76;22562;-40
2021/12/12 06:38:16;;;;;;;16.37;8.90;;;;;;;24.41;32.85;102118.95;1892660;76;22128;-40
2021/12/12 06:40:48;;;;;;;15.70;8.58;;;;;;;24.41;32.84;102124.39;1873926;76;22586;-40
2021/12/12 06:43:41;;;;;;;17.12;9.53;;;;;;;24.43;32.85;102122.86;1892705;76;22213;-40
2021/12/12 06:46:12;;;;;;;17.23;9.03;;;;;;;24.43;32.81;102121.50;1873916;76;22121;-40
2021/12/12 06:49:05;;;;;;;15.45;9.00;;;;;;;24.43;32.82;102127.77;1892687;76;22145;-40
2021/12/12 06:51:41;;;;;;;15.75;9.20;;;;;;;24.44;32.81;102128.61;1873917;76;22133;-41
2021/12/12 06:54:32;;;;;;;14.80;8.10;;;;;;;24.44;32.87;102125.89;1892692;76;22141;-40
2021/12/12 06:57:08;;;;;;;15.20;8.90;;;;;;;24.43;32.88;102123.70;1873911;76;22618;-40
2021/12/12 06:59:59;;;;;;;14.07;8.25;;;;;;;24.44;32.83;102126.73;1892709;76;22564;-41
2021/12/12 07:02:31;;;;;;;14.58;8.35;;;;;;;24.45;32.81;102131.64;1892711;76;22131;-41
2021/12/12 07:05:03;;;;;;;16.60;8.93;;;;;;;24.44;32.83;102136.76;1873902;76;22121;-40
2021/12/12 07:07:55;;;;;;;16.02;8.80;;;;;;;24.45;32.82;102137.07;1892701;76;22128;-40
2021/12/12 07:10:28;;;;;;;14.60;8.20;;;;;;;24.44;32.81;102152.53;1873916;76;22117;-41
2021/12/12 07:13:19;;;;;;;16.50;8.78;;;;;;;24.43;32.78;102150.02;1873864;76;22145;-41
2021/12/12 07:15:55;;;;;;;16.85;9.08;;;;;;;24.43;32.79;102147.31;1873914;76;22128;-40
2021/12/12 07:18:46;;;;;;;14.95;8.33;;;;;;;24.43;32.78;102154.94;1892677;76;22116;-40
2021/12/12 07:21:17;;;;;;;14.23;8.18;;;;;;;24.42;32.76;102162.77;1873917;76;22124;-40
2021/12/12 07:23:49;;;;;;;15.08;8.40;;;;;;;24.41;32.78;102159.70;1892694;76;22128;-40
2021/12/12 07:26:22;;;;;;;15.28;8.35;;;;;;;24.42;32.78;102157.86;1873925;76;22124;-41
2021/12/12 07:29:12;;;;;;;16.07;8.30;;;;;;;24.41;32.75;102160.22;1892698;76;22152;-40
2021/12/12 07:31:44;;;;;;;14.70;7.62;;;;;;;24.40;32.79;102162.63;1892723;76;22157;-40
2021/12/12 07:34:36;;;;;;;13.93;7.80;;;;;;;24.39;32.80;102164.50;1871156;76;22576;-41
2021/12/12 07:37:08;;;;;;;14.05;8.15;;;;;;;24.38;32.81;102166.91;1873930;76;22134;-40
2021/12/12 07:39:59;;;;;;;13.35;7.72;;;;;;;24.37;32.85;102163.88;1873890;76;22157;-40
2021/12/12 07:42:31;;;;;;;15.60;8.25;;;;;;;24.35;32.80;102159.10;1892657;76;22152;-40
2021/12/12 07:45:23;;;;;;;13.93;7.62;;;;;;;24.34;32.85;102157.43;1873896;76;22125;-41
2021/12/12 07:47:55;;;;;;;15.13;7.90;;;;;;;24.32;32.84;102150.50;1873926;76;22129;-41
2021/12/12 07:50:27;;;;;;;16.00;8.23;;;;;;;24.30;32.82;102150.70;1873932;76;22121;-40
2021/12/12 07:52:59;;;;;;;13.00;8.00;;;;;;;24.29;32.81;102149.03;1892690;76;22132;-40
2021/12/12 07:55:50;;;;;;;14.55;7.97;;;;;;;24.27;32.84;102147.52;1873897;76;22178;-40
2021/12/12 07:58:22;;;;;;;12.93;7.83;;;;;;;24.25;32.88;102153.69;1873929;76;22124;-41
2021/12/12 08:00:56;;;;;;;13.98;7.70;;;;;;;24.23;32.90;102143.03;1874039;76;22121;-41
2021/12/12 08:03:49;;;;;;;15.05;7.67;;;;;;;24.21;32.91;102147.79;1873867;76;22174;-41
2021/12/12 08:06:21;;;;;;;13.43;7.80;;;;;;;24.19;32.96;102140.37;1873876;76;22145;-40
2021/12/12 08:09:11;;;;;;;13.50;7.60;;;;;;;24.16;32.97;102148.37;1874002;76;22221;-40
2021/12/12 08:11:43;;;;;;;15.70;7.92;;;;;;;24.17;32.98;102153.28;1873899;76;22570;-40
2021/12/12 08:14:22;;;;;;;14.73;7.50;;;;;;;24.14;33.02;102153.69;1874033;76;22133;-40
2021/12/12 08:17:13;;;;;;;16.65;8.00;;;;;;;24.13;33.02;102153.34;1873891;76;22146;-41
2021/12/12 08:19:44;;;;;;;17.32;8.18;;;;;;;24.11;33.03;102153.55;1873916;76;22117;-40
2021/12/12 08:22:35;;;;;;;18.57;8.05;;;;;;;24.09;33.05;102152.05;1873862;76;22578;-40
2021/12/12 08:25:09;;;;;;;14.75;7.37;;;;;;;24.06;33.08;102146.50;1873913;76;22121;-41
2021/12/12 08:28:00;;;;;;;17.70;7.20;;;;;;;24.06;33.10;102141.59;1892679;76;22128;-40
2021/12/12 08:30:33;;;;;;;16.15;7.67;;;;;;;24.05;33.09;102142.63;1873927;76;22116;-40
2021/12/12 08:33:24;;;;;;;19.82;8.10;;;;;;;24.02;33.11;102141.13;1873901;76;22138;-40
2021/12/12 08:35:58;;;;;;;15.78;8.38;;;;;;;24.02;33.12;102139.77;1892714;76;22136;-41
2021/12/12 08:38:30;;;;;;;20.82;9.30;;;;;;;24.03;33.13;102146.03;1892704;76;22136;-40
2021/12/12 08:41:04;;;;;;;19.55;8.85;;;;;;;24.01;33.15;102139.45;1871194;76;22117;-40
2021/12/12 08:43:54;;;;;;;16.37;7.90;;;;;;;24.01;33.16;102135.38;1892689;76;22173;-41
2021/12/12 08:46:26;;;;;;;17.85;8.03;;;;;;;24.01;33.16;102131.31;1873939;76;22117;-41
2021/12/12 08:49:18;;;;;;;16.15;8.23;;;;;;;24.00;33.14;102129.64;1873866;76;22129;-41
2021/12/12 08:51:54;;;;;;;17.07;8.43;;;;;;;24.00;33.18;102134.23;1873931;76;22113;-41
2021/12/12 08:54:46;;;;;;;15.50;7.83;;;;;;;24.00;33.19;102130.99;1892711;76;22166;-41
2021/12/12 08:57:34;;;;;;;16.90;7.65;;;;;;;24.01;33.20;102128.59;1892721;76;22124;-41
2021/12/12 09:00:22;;;;;;;16.70;7.67;;;;;;;24.01;33.17;102124.52;1873928;76;22117;-40
2021/12/12 09:03:18;;;;;;;18.57;8.05;;;;;;;24.02;33.18;102126.72;1873906;76;22142;-40
2021/12/12 09:05:50;;;;;;;15.93;8.05;;;;;;;24.02;33.18;102124.84;1874008;76;22577;-40
2021/12/12 09:08:33;;;;;;;14.30;6.97;;;;;;;24.03;33.17;102114.81;1892711;76;22152;-40
2021/12/12 09:11:15;;;;;;;14.58;8.03;;;;;;;24.04;33.17;102121.92;1873923;76;22128;-41
2021/12/12 09:14:12;;;;;;;14.75;7.30;;;;;;;24.05;33.16;102120.39;1892719;76;22119;-40
2021/12/12 09:17:10;;;;;;;14.70;7.50;;;;;;;24.06;33.13;102118.52;1873918;76;22124;-41
2021/12/12 09:19:56;;;;;;;15.38;7.62;;;;;;;24.07;33.09;102115.59;1892719;76;22149;-40
2021/12/12 09:22:58;;;;;;;17.70;7.58;;;;;;;24.08;33.05;102101.50;1873925;76;22144;-41
2021/12/12 09:25:52;;;;;;;13.98;6.92;;;;;;;24.07;33.02;102095.23;1873908;76;22561;-40
2021/12/12 09:28:49;;;;;;;16.27;7.37;;;;;;;24.08;33.00;102100.14;1873907;76;22655;-40
2021/12/12 09:31:34;;;;;;;15.55;7.17;;;;;;;24.07;33.01;102096.59;1873924;76;22125;-41
2021/12/12 09:34:36;;;;;;;14.47;7.17;;;;;;;24.08;33.01;102100.98;1892727;76;22141;-41
2021/12/12 09:37:14;;;;;;;13.95;7.15;;;;;;;24.08;33.01;102089.28;1873873;76;22161;-40
2021/12/12 09:40:29;;;;;;;17.75;7.28;;;;;;;24.08;32.96;102092.00;1892694;76;22153;-40
2021/12/12 09:43:25;;;;;;;17.05;7.20;;;;;;;24.09;32.96;102088.23;1892854;76;20195;-41
2021/12/12 09:46:45;;;;;;;17.65;8.63;;;;;;;24.09;32.94;102096.39;1892714;76;22145;-41
2021/12/12 09:53:13;;;;;;;13.22;7.35;;;;;;;24.10;32.88;102093.50;1892732;76;22124;-40
2021/12/12 09:56:13;;;;;;;14.73;7.33;;;;;;;24.09;32.89;102091.82;1873917;76;22129;-40
2021/12/12 09:59:03;;;;;;;14.78;7.47;;;;;;;24.09;32.93;102082.81;1873896;76;22186;-40
2021/12/12 10:02:14;;;;;;;16.27;8.03;;;;;;;24.08;32.93;102077.06;1873884;76;22149;-41
2021/12/12 10:05:26;;;;;;;16.82;7.25;;;;;;;24.09;32.94;102073.30;1873920;76;22117;-40
2021/12/12 10:08:25;;;;;;;16.10;7.58;;;;;;;24.09;32.92;102070.59;1873917;76;22137;-40
2021/12/12 10:11:19;;;;;;;17.30;7.67;;;;;;;24.10;32.87;102080.44;1873914;76;22128;-41
2021/12/12 10:14:53;;;;;;;14.65;7.20;;;;;;;24.09;32.89;102085.52;1870059;75;22205;-40
2021/12/12 10:17:48;;;;;;;12.55;7.03;;;;;;;24.09;32.83;102078.73;1873920;76;22590;-41
2021/12/12 10:20:30;;;;;;;12.90;6.65;;;;;;;24.07;32.87;102077.59;1871204;76;22116;-41
2021/12/12 10:23:33;;;;;;;14.18;6.90;;;;;;;24.08;32.91;102085.21;1873915;76;22145;-41
2021/12/12 10:26:41;;;;;;;14.20;7.25;;;;;;;24.07;32.90;102080.82;1874034;76;22124;-40
2021/12/12 10:29:44;;;;;;;12.53;6.65;;;;;;;24.06;32.84;102083.22;1873918;76;22121;-40
2021/12/12 10:32:28;;;;;;;14.13;7.72;;;;;;;24.05;32.89;102082.91;1873911;76;22124;-40
2021/12/12 10:35:24;;;;;;;13.45;6.95;;;;;;;24.03;32.86;102080.36;1892790;76;22152;-41
2021/12/12 10:38:20;;;;;;;13.75;7.08;;;;;;;24.01;32.84;102078.38;1873928;76;22150;-41
2021/12/12 10:41:06;;;;;;;13.45;7.12;;;;;;;23.99;32.91;102077.70;1892711;76;22141;-40
2021/12/12 10:43:42;;;;;;;15.85;7.72;;;;;;;23.98;32.90;102075.52;1876644;76;27859;-41
2021/12/12 10:46:45;;;;;;;15.45;6.92;;;;;;;24.03;32.78;102074.94;1873871;76;22586;-41
2021/12/12 10:49:28;;;;;;;14.33;7.42;;;;;;;24.04;32.76;102079.32;1892722;76;22578;-41
2021/12/12 10:52:11;;;;;;;13.03;7.05;;;;;;;24.02;32.82;102084.12;1873924;76;22128;-41
2021/12/12 10:55:10;;;;;;;10.85;6.00;;;;;;;24.00;32.81;102074.51;1873921;76;22120;-41
2021/12/12 10:58:27;;;;;;;14.95;7.55;;;;;;;23.96;32.83;102088.45;1892726;76;22141;-40
2021/12/12 11:01:12;;;;;;;14.87;7.85;;;;;;;23.92;32.88;102081.73;1892718;76;22156;-40
2021/12/12 11:04:19;;;;;;;15.18;6.92;;;;;;;23.91;32.90;102090.91;1892717;76;22116;-41
2021/12/12 11:07:02;;;;;;;15.18;7.80;;;;;;;23.90;32.92;102097.38;1857999;76;27870;-40
2021/12/12 11:10:17;;;;;;;14.07;7.20;;;;;;;23.94;32.85;102087.79;1873183;76;22149;-40
2021/12/12 11:12:59;;;;;;;13.78;7.20;;;;;;;23.94;32.77;102086.95;1873924;76;22124;-41
2021/12/12 11:16:08;;;;;;;13.72;7.20;;;;;;;23.91;32.85;102082.77;1873909;76;22129;-41
2021/12/12 11:19:15;;;;;;;12.60;7.15;;;;;;;23.86;32.92;102083.88;1870134;75;22153;-41
2021/12/12 11:21:59;;;;;;;13.85;7.10;;;;;;;23.83;32.95;102087.48;1874035;76;22129;-41
2021/12/12 11:25:21;;;;;;;11.03;6.25;;;;;;;23.79;32.93;102081.59;1873910;76;22578;-40
2021/12/12 11:28:00;;;;;;;15.13;6.90;;;;;;;23.76;32.98;102079.77;1873901;76;22194;-41
2021/12/12 11:31:03;;;;;;;13.30;6.80;;;;;;;23.71;33.02;102079.86;1873865;76;22198;-41
2021/12/12 11:33:36;;;;;;;10.80;6.10;;;;;;;23.69;33.08;102072.93;1874022;76;22125;-40
2021/12/12 11:36:34;;;;;;;12.10;6.50;;;;;;;23.68;33.07;102076.68;1873881;76;23650;-40
2021/12/12 11:39:24;;;;;;;13.32;6.62;;;;;;;23.64;33.07;102074.86;1873914;76;22136;-40
2021/12/12 11:42:07;;;;;;;12.80;6.50;;;;;;;23.62;33.13;102067.41;1873923;76;22121;-41
2021/12/12 11:45:11;;;;;;;12.23;6.15;;;;;;;23.60;33.16;102064.03;1873919;76;22121;-40
2021/12/12 11:48:41;;;;;;;14.53;7.00;;;;;;;23.58;33.14;102062.05;1892716;76;22124;-41
2021/12/12 11:51:33;;;;;;;14.93;7.05;;;;;;;23.56;33.18;102064.61;1873912;76;22643;-41
2021/12/12 11:54:55;;;;;;;14.40;6.80;;;;;;;23.52;33.19;102070.92;1873876;76;22149;-40
2021/12/12 11:57:38;;;;;;;14.30;6.60;;;;;;;23.50;33.21;102067.58;1892709;76;22120;-40
2021/12/12 12:00:20;;;;;;;14.75;6.92;;;;;;;23.49;33.26;102079.98;1873917;76;22121;-40
2021/12/12 12:03:27;;;;;;;12.03;6.45;;;;;;;23.45;33.25;102074.09;1873900;76;22562;-41
2021/12/12 12:06:29;;;;;;;14.98;7.03;;;;;;;23.43;33.31;102072.06;1873928;76;22146;-40
2021/12/12 12:09:52;;;;;;;14.00;6.92;;;;;;;23.42;33.38;102077.17;1873924;76;22128;-40
2021/12/12 12:13:10;;;;;;;11.57;6.22;;;;;;;23.39;33.40;102088.42;1892832;76;22085;-41
2021/12/12 12:16:09;;;;;;;12.40;6.40;;;;;;;23.35;33.41;102091.19;1873919;76;22125;-41
2021/12/12 12:19:04;;;;;;;13.08;6.92;;;;;;;23.33;33.37;102098.13;1873933;76;22120;-41
2021/12/12 12:22:11;;;;;;;12.13;6.15;;;;;;;23.31;33.44;102087.16;1873906;76;22132;-40
2021/12/12 12:25:40;;;;;;;11.93;6.50;;;;;;;23.28;33.51;102085.66;1892678;76;22142;-40
2021/12/12 12:28:16;;;;;;;;;;;;;;;;;;;;;
2021/12/12 12:31:02;;;;;;;12.45;6.03;;;;;;;23.23;33.55;102088.09;1873920;76;22607;-40
2021/12/12 12:34:22;;;;;;;12.78;6.42;;;;;;;23.22;33.59;102095.91;1873907;76;22171;-41
2021/12/12 12:40:44;;;;;;;13.48;6.22;;;;;;;23.16;33.73;102103.45;1873933;76;22117;-41
2021/12/12 12:43:59;;;;;;;12.93;6.30;;;;;;;23.13;33.75;102106.53;1873933;76;22138;-40
2021/12/12 12:47:11;;;;;;;13.10;6.85;;;;;;;23.12;33.78;102110.28;1892726;76;22145;-40
2021/12/12 12:50:24;;;;;;;14.13;6.42;;;;;;;23.08;33.80;102111.67;1873911;76;22194;-41
2021/12/12 12:53:33;;;;;;;13.35;6.72;;;;;;;23.04;33.82;102108.49;1873913;76;22117;-40
2021/12/12 12:56:44;;;;;;;13.30;7.00;;;;;;;23.01;33.87;102104.82;1873921;76;22570;-40
2021/12/12 12:59:55;;;;;;;14.20;6.55;;;;;;;22.98;33.92;102105.70;1873907;76;22144;-41
2021/12/12 13:03:12;;;;;;;14.38;6.70;;;;;;;22.95;33.92;102105.55;1873929;76;22116;-40
2021/12/12 13:06:10;;;;;;;13.08;6.55;;;;;;;22.92;34.00;102110.00;1892706;76;22176;-40
2021/12/12 13:09:19;;;;;;;12.82;6.37;;;;;;;22.90;33.96;102105.27;1892728;76;22140;-40
2021/12/12 13:12:32;;;;;;;13.95;6.47;;;;;;;22.86;33.99;102110.17;1873919;76;22141;-40